HK36E SCAT-SCEL
Flight info
| Callsign | HK36E |
|---|---|
| Flight time | 1h 47m |
| Altitude | 27000 |
| Route | MORMI3J MORMI UQ803 SIMOK SIMOK7B |
| Aircraft | BE20/L-SDFGRWY/LB1 |
Departure
| Time | 2026-05-08 18:08 |
|---|---|
| Airport | Desierto de Atacama Airport (SCAT) |
Arrival
| Time | 2026-05-08 19:55 |
|---|---|
| Airport | Comodoro Arturo Merino Benítez International Airport (SCEL) |
| Time | Latitude | Longitude | Altitude | Speed | Heading |
|---|---|---|---|---|---|
| 2026-05-08 17:58 | -27.26339 | -70.77518 | 656 ft | 0 kts | 86° |
| 2026-05-08 18:02 | -27.26339 | -70.77517 | 656 ft | 0 kts | 86° |
| 2026-05-08 18:03 | -27.26333 | -70.77513 | 656 ft | 3 kts | 359° |
| 2026-05-08 18:03 | -27.26310 | -70.77564 | 656 ft | 11 kts | 282° |
| 2026-05-08 18:04 | -27.26268 | -70.77624 | 654 ft | 14 kts | 1° |
| 2026-05-08 18:04 | -27.26145 | -70.77632 | 651 ft | 15 kts | 355° |
| 2026-05-08 18:04 | -27.26069 | -70.77651 | 649 ft | 11 kts | 311° |
| 2026-05-08 18:04 | -27.26065 | -70.77758 | 648 ft | 17 kts | 265° |
| 2026-05-08 18:05 | -27.26072 | -70.77878 | 648 ft | 11 kts | 268° |
| 2026-05-08 18:05 | -27.26013 | -70.77935 | 646 ft | 16 kts | 354° |
| 2026-05-08 18:05 | -27.25870 | -70.77949 | 643 ft | 24 kts | 355° |
| 2026-05-08 18:05 | -27.25697 | -70.77964 | 641 ft | 20 kts | 355° |
| 2026-05-08 18:06 | -27.25546 | -70.77979 | 636 ft | 25 kts | 356° |
| 2026-05-08 18:06 | -27.25401 | -70.77991 | 633 ft | 22 kts | 354° |
| 2026-05-08 18:06 | -27.25263 | -70.77996 | 629 ft | 14 kts | 8° |
| 2026-05-08 18:06 | -27.25249 | -70.78003 | 637 ft | 0 kts | 174° |
| 2026-05-08 18:07 | -27.25259 | -70.78002 | 633 ft | 13 kts | 174° |
| 2026-05-08 18:07 | -27.25573 | -70.77976 | 637 ft | 76 kts | 175° |
| 2026-05-08 18:07 | -27.26290 | -70.77916 | 675 ft | 126 kts | 177° |
| 2026-05-08 18:07 | -27.27254 | -70.77827 | 1018 ft | 142 kts | 176° |
| 2026-05-08 18:08 | -27.28192 | -70.77729 | 1690 ft | 142 kts | 174° |
| 2026-05-08 18:08 | -27.29292 | -70.77636 | 1995 ft | 163 kts | 176° |
| 2026-05-08 18:08 | -27.30390 | -70.77543 | 2665 ft | 157 kts | 175° |
| 2026-05-08 18:08 | -27.31479 | -70.77446 | 3223 ft | 157 kts | 175° |
| 2026-05-08 18:09 | -27.32565 | -70.77297 | 3731 ft | 159 kts | 167° |
| 2026-05-08 18:09 | -27.33659 | -70.77045 | 4243 ft | 161 kts | 168° |
| 2026-05-08 18:09 | -27.34772 | -70.76803 | 4764 ft | 164 kts | 168° |
| 2026-05-08 18:09 | -27.35901 | -70.76555 | 5282 ft | 167 kts | 168° |
| 2026-05-08 18:10 | -27.37045 | -70.76304 | 5800 ft | 169 kts | 168° |
| 2026-05-08 18:10 | -27.38197 | -70.76049 | 6293 ft | 172 kts | 168° |
| 2026-05-08 18:10 | -27.39389 | -70.75786 | 6831 ft | 173 kts | 168° |
| 2026-05-08 18:10 | -27.40579 | -70.75524 | 7268 ft | 175 kts | 168° |
| 2026-05-08 18:11 | -27.41764 | -70.75262 | 7734 ft | 177 kts | 169° |
| 2026-05-08 18:11 | -27.42976 | -70.74994 | 8210 ft | 178 kts | 169° |
| 2026-05-08 18:11 | -27.44190 | -70.74725 | 8724 ft | 178 kts | 169° |
| 2026-05-08 18:11 | -27.45413 | -70.74456 | 9208 ft | 180 kts | 169° |
| 2026-05-08 18:12 | -27.46650 | -70.74182 | 9710 ft | 182 kts | 169° |
| 2026-05-08 18:12 | -27.47897 | -70.73906 | 10175 ft | 183 kts | 169° |
| 2026-05-08 18:12 | -27.49147 | -70.73630 | 10627 ft | 184 kts | 170° |
| 2026-05-08 18:12 | -27.50400 | -70.73353 | 11101 ft | 183 kts | 170° |
| 2026-05-08 18:13 | -27.51643 | -70.73078 | 11612 ft | 181 kts | 170° |
| 2026-05-08 18:13 | -27.52884 | -70.72803 | 12082 ft | 182 kts | 171° |
| 2026-05-08 18:13 | -27.54120 | -70.72529 | 12604 ft | 180 kts | 171° |
| 2026-05-08 18:13 | -27.55355 | -70.72256 | 13063 ft | 181 kts | 171° |
| 2026-05-08 18:14 | -27.56585 | -70.71984 | 13533 ft | 179 kts | 172° |
| 2026-05-08 18:14 | -27.57811 | -70.71712 | 13925 ft | 180 kts | 172° |
| 2026-05-08 18:14 | -27.59030 | -70.71441 | 14350 ft | 176 kts | 172° |
| 2026-05-08 18:14 | -27.60224 | -70.71177 | 14747 ft | 174 kts | 172° |
| 2026-05-08 18:15 | -27.61415 | -70.70913 | 15148 ft | 174 kts | 172° |
| 2026-05-08 18:15 | -27.62582 | -70.70654 | 15679 ft | 169 kts | 173° |
| 2026-05-08 18:15 | -27.63734 | -70.70398 | 16176 ft | 168 kts | 173° |
| 2026-05-08 18:15 | -27.64863 | -70.70148 | 16704 ft | 164 kts | 174° |
| 2026-05-08 18:16 | -27.65980 | -70.69900 | 17191 ft | 162 kts | 174° |
| 2026-05-08 18:16 | -27.67072 | -70.69657 | 17720 ft | 159 kts | 174° |
| 2026-05-08 18:16 | -27.68157 | -70.69417 | 18215 ft | 157 kts | 175° |
| 2026-05-08 18:16 | -27.69225 | -70.69241 | 18647 ft | 155 kts | 176° |
| 2026-05-08 18:17 | -27.70295 | -70.69035 | 19016 ft | 157 kts | 177° |
| 2026-05-08 18:17 | -27.71363 | -70.68834 | 19451 ft | 154 kts | 178° |
| 2026-05-08 18:17 | -27.72424 | -70.68640 | 19830 ft | 155 kts | 179° |
| 2026-05-08 18:17 | -27.73490 | -70.68446 | 20258 ft | 154 kts | 179° |
| 2026-05-08 18:18 | -27.74532 | -70.68256 | 20668 ft | 154 kts | 180° |
| 2026-05-08 18:18 | -27.75608 | -70.68061 | 21068 ft | 155 kts | 180° |
| 2026-05-08 18:18 | -27.76651 | -70.67870 | 21509 ft | 153 kts | 181° |
| 2026-05-08 18:18 | -27.77720 | -70.67676 | 21921 ft | 154 kts | 182° |
| 2026-05-08 18:19 | -27.78764 | -70.67486 | 22355 ft | 153 kts | 182° |
| 2026-05-08 18:19 | -27.79813 | -70.67295 | 22768 ft | 153 kts | 183° |
| 2026-05-08 18:19 | -27.80868 | -70.67103 | 23179 ft | 153 kts | 183° |
| 2026-05-08 18:19 | -27.81914 | -70.66912 | 23598 ft | 152 kts | 184° |
| 2026-05-08 18:20 | -27.82988 | -70.66720 | 23823 ft | 160 kts | 184° |
| 2026-05-08 18:20 | -27.84108 | -70.66518 | 24060 ft | 166 kts | 183° |
| 2026-05-08 18:20 | -27.85271 | -70.66306 | 24313 ft | 172 kts | 183° |
| 2026-05-08 18:20 | -27.86486 | -70.66084 | 24563 ft | 177 kts | 183° |
| 2026-05-08 18:21 | -27.87703 | -70.65861 | 24806 ft | 182 kts | 182° |
| 2026-05-08 18:21 | -27.88966 | -70.65630 | 25053 ft | 186 kts | 182° |
| 2026-05-08 18:21 | -27.90255 | -70.65394 | 25299 ft | 189 kts | 182° |
| 2026-05-08 18:21 | -27.91564 | -70.65155 | 25544 ft | 192 kts | 182° |
| 2026-05-08 18:22 | -27.92893 | -70.64912 | 25790 ft | 195 kts | 182° |
| 2026-05-08 18:22 | -27.94235 | -70.64667 | 26035 ft | 196 kts | 182° |
| 2026-05-08 18:22 | -27.95591 | -70.64419 | 26281 ft | 198 kts | 181° |
| 2026-05-08 18:22 | -27.96955 | -70.64169 | 26521 ft | 199 kts | 181° |
| 2026-05-08 18:23 | -27.98327 | -70.63918 | 26771 ft | 200 kts | 181° |
| 2026-05-08 18:23 | -27.99239 | -70.63751 | 26936 ft | 201 kts | 182° |
| 2026-05-08 18:23 | -28.00641 | -70.63499 | 27014 ft | 209 kts | 181° |
| 2026-05-08 18:23 | -28.02112 | -70.63233 | 27026 ft | 219 kts | 181° |
| 2026-05-08 18:24 | -28.03642 | -70.62952 | 27025 ft | 227 kts | 180° |
| 2026-05-08 18:24 | -28.05219 | -70.62662 | 27027 ft | 233 kts | 180° |
| 2026-05-08 18:24 | -28.06832 | -70.62365 | 27024 ft | 237 kts | 180° |
| 2026-05-08 18:24 | -28.08471 | -70.62055 | 27021 ft | 241 kts | 179° |
| 2026-05-08 18:25 | -28.10128 | -70.61713 | 27017 ft | 243 kts | 179° |
| 2026-05-08 18:25 | -28.11801 | -70.61366 | 27021 ft | 245 kts | 179° |
| 2026-05-08 18:25 | -28.13485 | -70.61025 | 27018 ft | 247 kts | 179° |
| 2026-05-08 18:25 | -28.15176 | -70.60684 | 27016 ft | 247 kts | 179° |
| 2026-05-08 18:26 | -28.16866 | -70.60342 | 27020 ft | 247 kts | 179° |
| 2026-05-08 18:26 | -28.18557 | -70.59999 | 27013 ft | 246 kts | 179° |
| 2026-05-08 18:26 | -28.20244 | -70.59657 | 27016 ft | 246 kts | 179° |
| 2026-05-08 18:26 | -28.21931 | -70.59316 | 27017 ft | 246 kts | 179° |
| 2026-05-08 18:27 | -28.23617 | -70.58974 | 27017 ft | 247 kts | 179° |
| 2026-05-08 18:27 | -28.24739 | -70.58746 | 27012 ft | 247 kts | 179° |
| 2026-05-08 18:27 | -28.27001 | -70.58287 | 27015 ft | 247 kts | 179° |
| 2026-05-08 18:27 | -28.28693 | -70.57944 | 27013 ft | 247 kts | 179° |
| 2026-05-08 18:28 | -28.30385 | -70.57601 | 27009 ft | 247 kts | 179° |
| 2026-05-08 18:28 | -28.32079 | -70.57256 | 27008 ft | 248 kts | 179° |
| 2026-05-08 18:28 | -28.33775 | -70.56912 | 27006 ft | 248 kts | 179° |
| 2026-05-08 18:28 | -28.35450 | -70.56572 | 27006 ft | 248 kts | 179° |
| 2026-05-08 18:29 | -28.37150 | -70.56226 | 27002 ft | 248 kts | 179° |
| 2026-05-08 18:29 | -28.38851 | -70.55880 | 27005 ft | 248 kts | 179° |
| 2026-05-08 18:29 | -28.40539 | -70.55542 | 27006 ft | 245 kts | 179° |
| 2026-05-08 18:29 | -28.42220 | -70.55195 | 27007 ft | 245 kts | 179° |
| 2026-05-08 18:30 | -28.43900 | -70.54852 | 27004 ft | 245 kts | 179° |
| 2026-05-08 18:30 | -28.45574 | -70.54511 | 27004 ft | 244 kts | 179° |
| 2026-05-08 18:30 | -28.47244 | -70.54173 | 27010 ft | 244 kts | 179° |
| 2026-05-08 18:30 | -28.48915 | -70.53837 | 27012 ft | 244 kts | 180° |
| 2026-05-08 18:31 | -28.50575 | -70.53661 | 27008 ft | 234 kts | 193° |
| 2026-05-08 18:31 | -28.52190 | -70.53821 | 27009 ft | 234 kts | 193° |
| 2026-05-08 18:31 | -28.53813 | -70.53969 | 27006 ft | 234 kts | 192° |
| 2026-05-08 18:31 | -28.55431 | -70.54117 | 27000 ft | 233 kts | 192° |
| 2026-05-08 18:32 | -28.57054 | -70.54269 | 26996 ft | 234 kts | 192° |
| 2026-05-08 18:32 | -28.58674 | -70.54421 | 27001 ft | 234 kts | 192° |
| 2026-05-08 18:32 | -28.60297 | -70.54573 | 27003 ft | 234 kts | 192° |
| 2026-05-08 18:32 | -28.61927 | -70.54726 | 27005 ft | 235 kts | 192° |
| 2026-05-08 18:33 | -28.63558 | -70.54878 | 27002 ft | 235 kts | 192° |
| 2026-05-08 18:33 | -28.65185 | -70.55029 | 27008 ft | 235 kts | 192° |
| 2026-05-08 18:33 | -28.66816 | -70.55183 | 27008 ft | 235 kts | 192° |
| 2026-05-08 18:33 | -28.68449 | -70.55336 | 27007 ft | 236 kts | 192° |
| 2026-05-08 18:34 | -28.70083 | -70.55489 | 27003 ft | 236 kts | 192° |
| 2026-05-08 18:34 | -28.71720 | -70.55642 | 27001 ft | 236 kts | 192° |
| 2026-05-08 18:34 | -28.73353 | -70.55796 | 27007 ft | 235 kts | 192° |
| 2026-05-08 18:34 | -28.74987 | -70.55950 | 27006 ft | 235 kts | 192° |
| 2026-05-08 18:35 | -28.76614 | -70.56101 | 27003 ft | 234 kts | 192° |
| 2026-05-08 18:35 | -28.78233 | -70.56252 | 27004 ft | 233 kts | 192° |
| 2026-05-08 18:35 | -28.79846 | -70.56404 | 27001 ft | 232 kts | 192° |
| 2026-05-08 18:35 | -28.81429 | -70.56553 | 26997 ft | 231 kts | 192° |
| 2026-05-08 18:36 | -28.83025 | -70.56703 | 27005 ft | 229 kts | 192° |
| 2026-05-08 18:36 | -28.84617 | -70.56852 | 27008 ft | 229 kts | 192° |
| 2026-05-08 18:36 | -28.86205 | -70.57004 | 27019 ft | 229 kts | 192° |
| 2026-05-08 18:36 | -28.87797 | -70.57153 | 27013 ft | 229 kts | 192° |
| 2026-05-08 18:37 | -28.89394 | -70.57302 | 27016 ft | 231 kts | 192° |
| 2026-05-08 18:37 | -28.90996 | -70.57452 | 27013 ft | 231 kts | 192° |
| 2026-05-08 18:37 | -28.92597 | -70.57603 | 27014 ft | 231 kts | 192° |
| 2026-05-08 18:37 | -28.94198 | -70.57758 | 27016 ft | 231 kts | 192° |
| 2026-05-08 18:38 | -28.95799 | -70.57913 | 27053 ft | 231 kts | 192° |
| 2026-05-08 18:38 | -28.97402 | -70.58069 | 27031 ft | 231 kts | 192° |
| 2026-05-08 18:38 | -28.99002 | -70.58222 | 27030 ft | 230 kts | 192° |
| 2026-05-08 18:38 | -29.00591 | -70.58375 | 27021 ft | 228 kts | 192° |
| 2026-05-08 18:39 | -29.02171 | -70.58528 | 27023 ft | 228 kts | 192° |
| 2026-05-08 18:39 | -29.03748 | -70.58680 | 27022 ft | 227 kts | 193° |
| 2026-05-08 18:39 | -29.05317 | -70.58833 | 27011 ft | 226 kts | 192° |
| 2026-05-08 18:39 | -29.06882 | -70.58984 | 27046 ft | 227 kts | 193° |
| 2026-05-08 18:40 | -29.08457 | -70.59137 | 27046 ft | 227 kts | 192° |
| 2026-05-08 18:40 | -29.10028 | -70.59288 | 27045 ft | 227 kts | 193° |
| 2026-05-08 18:40 | -29.11583 | -70.59439 | 27045 ft | 227 kts | 193° |
| 2026-05-08 18:40 | -29.13161 | -70.59592 | 27047 ft | 228 kts | 192° |
| 2026-05-08 18:41 | -29.14745 | -70.59746 | 27046 ft | 229 kts | 192° |
| 2026-05-08 18:41 | -29.16339 | -70.59900 | 27042 ft | 230 kts | 192° |
| 2026-05-08 18:41 | -29.17922 | -70.60050 | 27062 ft | 228 kts | 192° |
| 2026-05-08 18:41 | -29.19492 | -70.60204 | 27055 ft | 223 kts | 192° |
| 2026-05-08 18:42 | -29.21028 | -70.60350 | 27043 ft | 221 kts | 192° |
| 2026-05-08 18:42 | -29.22552 | -70.60499 | 27041 ft | 220 kts | 193° |
| 2026-05-08 18:42 | -29.24072 | -70.60649 | 27065 ft | 220 kts | 193° |
| 2026-05-08 18:42 | -29.25598 | -70.60797 | 27036 ft | 221 kts | 193° |
| 2026-05-08 18:43 | -29.27131 | -70.60947 | 27041 ft | 222 kts | 193° |
| 2026-05-08 18:43 | -29.28676 | -70.61097 | 27035 ft | 224 kts | 193° |
| 2026-05-08 18:43 | -29.30236 | -70.61248 | 27042 ft | 226 kts | 193° |
| 2026-05-08 18:43 | -29.31799 | -70.61400 | 27041 ft | 225 kts | 193° |
| 2026-05-08 18:44 | -29.33360 | -70.61551 | 27040 ft | 226 kts | 193° |
| 2026-05-08 18:44 | -29.34929 | -70.61704 | 27045 ft | 226 kts | 192° |
| 2026-05-08 18:44 | -29.36498 | -70.61856 | 27045 ft | 226 kts | 193° |
| 2026-05-08 18:44 | -29.38065 | -70.62008 | 27037 ft | 225 kts | 192° |
| 2026-05-08 18:45 | -29.39626 | -70.62160 | 27044 ft | 225 kts | 193° |
| 2026-05-08 18:45 | -29.41184 | -70.62311 | 27046 ft | 225 kts | 192° |
| 2026-05-08 18:45 | -29.42745 | -70.62464 | 27045 ft | 225 kts | 192° |
| 2026-05-08 18:45 | -29.44306 | -70.62616 | 27051 ft | 225 kts | 192° |
| 2026-05-08 18:46 | -29.45873 | -70.62769 | 27043 ft | 226 kts | 192° |
| 2026-05-08 18:46 | -29.47443 | -70.62922 | 27043 ft | 226 kts | 192° |
| 2026-05-08 18:46 | -29.49011 | -70.63076 | 27051 ft | 227 kts | 192° |
| 2026-05-08 18:46 | -29.50583 | -70.63229 | 27044 ft | 227 kts | 192° |
| 2026-05-08 18:47 | -29.52157 | -70.63381 | 27056 ft | 226 kts | 192° |
| 2026-05-08 18:47 | -29.53721 | -70.63530 | 27046 ft | 225 kts | 192° |
| 2026-05-08 18:47 | -29.55281 | -70.63687 | 27043 ft | 226 kts | 192° |
| 2026-05-08 18:47 | -29.56848 | -70.63840 | 27043 ft | 226 kts | 192° |
| 2026-05-08 18:48 | -29.58412 | -70.63992 | 27045 ft | 226 kts | 192° |
| 2026-05-08 18:48 | -29.59973 | -70.64144 | 27045 ft | 225 kts | 192° |
| 2026-05-08 18:48 | -29.61535 | -70.64297 | 27044 ft | 225 kts | 192° |
| 2026-05-08 18:48 | -29.63097 | -70.64450 | 27045 ft | 225 kts | 192° |
| 2026-05-08 18:49 | -29.64657 | -70.64603 | 27046 ft | 225 kts | 192° |
| 2026-05-08 18:49 | -29.66218 | -70.64756 | 27048 ft | 226 kts | 192° |
| 2026-05-08 18:49 | -29.67785 | -70.64909 | 27041 ft | 226 kts | 192° |
| 2026-05-08 18:49 | -29.69352 | -70.65062 | 27040 ft | 226 kts | 192° |
| 2026-05-08 18:50 | -29.70922 | -70.65216 | 27042 ft | 226 kts | 192° |
| 2026-05-08 18:50 | -29.72489 | -70.65369 | 27041 ft | 226 kts | 192° |
| 2026-05-08 18:50 | -29.74057 | -70.65522 | 27033 ft | 226 kts | 192° |
| 2026-05-08 18:50 | -29.75619 | -70.65676 | 27035 ft | 226 kts | 192° |
| 2026-05-08 18:51 | -29.77161 | -70.65827 | 27030 ft | 226 kts | 192° |
| 2026-05-08 18:51 | -29.78745 | -70.65982 | 27023 ft | 224 kts | 192° |
| 2026-05-08 18:51 | -29.80270 | -70.66131 | 27014 ft | 222 kts | 193° |
| 2026-05-08 18:51 | -29.81813 | -70.66284 | 27034 ft | 224 kts | 192° |
| 2026-05-08 18:52 | -29.83387 | -70.66438 | 27029 ft | 223 kts | 192° |
| 2026-05-08 18:52 | -29.84923 | -70.66589 | 27029 ft | 225 kts | 192° |
| 2026-05-08 18:52 | -29.86482 | -70.66743 | 27031 ft | 225 kts | 192° |
| 2026-05-08 18:52 | -29.88040 | -70.66895 | 27029 ft | 225 kts | 192° |
| 2026-05-08 18:53 | -29.89602 | -70.67047 | 27030 ft | 227 kts | 192° |
| 2026-05-08 18:53 | -29.91176 | -70.67205 | 27028 ft | 227 kts | 192° |
| 2026-05-08 18:53 | -29.92749 | -70.67359 | 27025 ft | 227 kts | 191° |
| 2026-05-08 18:53 | -29.94315 | -70.67508 | 27030 ft | 227 kts | 192° |
| 2026-05-08 18:54 | -29.95894 | -70.67667 | 27024 ft | 226 kts | 192° |
| 2026-05-08 18:54 | -29.97459 | -70.67823 | 27026 ft | 226 kts | 192° |
| 2026-05-08 18:54 | -29.99026 | -70.67976 | 27023 ft | 226 kts | 192° |
| 2026-05-08 18:54 | -30.00590 | -70.68130 | 27023 ft | 226 kts | 192° |
| 2026-05-08 18:55 | -30.03715 | -70.68438 | 27022 ft | 225 kts | 192° |
| 2026-05-08 18:55 | -30.05271 | -70.68591 | 27013 ft | 224 kts | 192° |
| 2026-05-08 18:55 | -30.06819 | -70.68746 | 27042 ft | 223 kts | 192° |
| 2026-05-08 18:56 | -30.08364 | -70.68897 | 27028 ft | 222 kts | 192° |
| 2026-05-08 18:56 | -30.09897 | -70.69046 | 27021 ft | 221 kts | 192° |
| 2026-05-08 18:56 | -30.11432 | -70.69199 | 27024 ft | 221 kts | 192° |
| 2026-05-08 18:56 | -30.12962 | -70.69351 | 27013 ft | 220 kts | 192° |
| 2026-05-08 18:57 | -30.14477 | -70.69499 | 27017 ft | 218 kts | 192° |
| 2026-05-08 18:57 | -30.15477 | -70.69597 | 27014 ft | 218 kts | 192° |
| 2026-05-08 18:57 | -30.17494 | -70.69797 | 27016 ft | 217 kts | 192° |
| 2026-05-08 18:57 | -30.18991 | -70.69948 | 27019 ft | 215 kts | 192° |
| 2026-05-08 18:58 | -30.20478 | -70.70093 | 27016 ft | 214 kts | 192° |
| 2026-05-08 18:58 | -30.21959 | -70.70240 | 27024 ft | 214 kts | 192° |
| 2026-05-08 18:58 | -30.23448 | -70.70388 | 27024 ft | 215 kts | 192° |
| 2026-05-08 18:58 | -30.24941 | -70.70535 | 27026 ft | 215 kts | 192° |
| 2026-05-08 18:59 | -30.26444 | -70.70684 | 27030 ft | 219 kts | 192° |
| 2026-05-08 18:59 | -30.27964 | -70.70835 | 27027 ft | 219 kts | 192° |
| 2026-05-08 18:59 | -30.29482 | -70.70985 | 27037 ft | 219 kts | 192° |
| 2026-05-08 18:59 | -30.30999 | -70.71135 | 27041 ft | 219 kts | 192° |
| 2026-05-08 19:00 | -30.32003 | -70.71234 | 27037 ft | 219 kts | 192° |
| 2026-05-08 19:00 | -30.34015 | -70.71434 | 27054 ft | 219 kts | 193° |
| 2026-05-08 19:00 | -30.35524 | -70.71583 | 27038 ft | 218 kts | 192° |
| 2026-05-08 19:00 | -30.37027 | -70.71730 | 27032 ft | 215 kts | 192° |
| 2026-05-08 19:01 | -30.38519 | -70.71881 | 27033 ft | 215 kts | 192° |
| 2026-05-08 19:01 | -30.40010 | -70.72029 | 27027 ft | 214 kts | 192° |
| 2026-05-08 19:01 | -30.41485 | -70.72176 | 27031 ft | 212 kts | 193° |
| 2026-05-08 19:01 | -30.42954 | -70.72322 | 27036 ft | 212 kts | 192° |
| 2026-05-08 19:02 | -30.44428 | -70.72467 | 27028 ft | 213 kts | 193° |
| 2026-05-08 19:02 | -30.45875 | -70.72608 | 27029 ft | 206 kts | 192° |
| 2026-05-08 19:02 | -30.47307 | -70.72754 | 27038 ft | 208 kts | 192° |
| 2026-05-08 19:02 | -30.48756 | -70.72900 | 27029 ft | 209 kts | 193° |
| 2026-05-08 19:03 | -30.50174 | -70.73028 | 27037 ft | 204 kts | 193° |
| 2026-05-08 19:03 | -30.51597 | -70.73182 | 27037 ft | 207 kts | 192° |
| 2026-05-08 19:03 | -30.53037 | -70.73330 | 27042 ft | 209 kts | 192° |
| 2026-05-08 19:03 | -30.54497 | -70.73471 | 27044 ft | 212 kts | 192° |
| 2026-05-08 19:04 | -30.55967 | -70.73616 | 27043 ft | 212 kts | 193° |
| 2026-05-08 19:04 | -30.57442 | -70.73763 | 27029 ft | 212 kts | 192° |
| 2026-05-08 19:04 | -30.58891 | -70.73906 | 27045 ft | 207 kts | 193° |
| 2026-05-08 19:04 | -30.60331 | -70.74051 | 27043 ft | 208 kts | 192° |
| 2026-05-08 19:05 | -30.61766 | -70.74189 | 27051 ft | 208 kts | 192° |
| 2026-05-08 19:05 | -30.63212 | -70.74327 | 27045 ft | 209 kts | 192° |
| 2026-05-08 19:05 | -30.64663 | -70.74468 | 27024 ft | 210 kts | 192° |
| 2026-05-08 19:05 | -30.66122 | -70.74609 | 27030 ft | 212 kts | 192° |
| 2026-05-08 19:06 | -30.67596 | -70.74755 | 27022 ft | 213 kts | 192° |
| 2026-05-08 19:06 | -30.69050 | -70.74893 | 27025 ft | 212 kts | 192° |
| 2026-05-08 19:06 | -30.70524 | -70.75038 | 27022 ft | 212 kts | 192° |
| 2026-05-08 19:06 | -30.72018 | -70.75181 | 27035 ft | 214 kts | 193° |
| 2026-05-08 19:07 | -30.73491 | -70.75328 | 27018 ft | 216 kts | 192° |
| 2026-05-08 19:07 | -30.75010 | -70.75471 | 27018 ft | 216 kts | 192° |
| 2026-05-08 19:07 | -30.76490 | -70.75614 | 27021 ft | 217 kts | 192° |
| 2026-05-08 19:07 | -30.77993 | -70.75761 | 27018 ft | 216 kts | 192° |
| 2026-05-08 19:08 | -30.79489 | -70.75905 | 27014 ft | 215 kts | 192° |
| 2026-05-08 19:08 | -30.80978 | -70.76051 | 27025 ft | 215 kts | 192° |
| 2026-05-08 19:08 | -30.82467 | -70.76195 | 27024 ft | 215 kts | 192° |
| 2026-05-08 19:08 | -30.83957 | -70.76341 | 27025 ft | 215 kts | 192° |
| 2026-05-08 19:09 | -30.85447 | -70.76486 | 27015 ft | 214 kts | 192° |
| 2026-05-08 19:09 | -30.86923 | -70.76631 | 27036 ft | 211 kts | 192° |
| 2026-05-08 19:09 | -30.88387 | -70.76770 | 27051 ft | 212 kts | 192° |
| 2026-05-08 19:09 | -30.89856 | -70.76909 | 27028 ft | 211 kts | 192° |
| 2026-05-08 19:10 | -30.91317 | -70.77057 | 27022 ft | 211 kts | 192° |
| 2026-05-08 19:10 | -30.92785 | -70.77202 | 27024 ft | 212 kts | 192° |
| 2026-05-08 19:10 | -30.94249 | -70.77343 | 27028 ft | 210 kts | 192° |
| 2026-05-08 19:10 | -30.95702 | -70.77484 | 27027 ft | 209 kts | 191° |
| 2026-05-08 19:11 | -30.97149 | -70.77625 | 27026 ft | 208 kts | 192° |
| 2026-05-08 19:11 | -30.98590 | -70.77767 | 27030 ft | 207 kts | 190° |
| 2026-05-08 19:11 | -31.00028 | -70.77908 | 27025 ft | 207 kts | 191° |
| 2026-05-08 19:11 | -31.01463 | -70.78046 | 27025 ft | 206 kts | 190° |
| 2026-05-08 19:12 | -31.02886 | -70.78186 | 27024 ft | 205 kts | 192° |
| 2026-05-08 19:12 | -31.04300 | -70.78324 | 27037 ft | 204 kts | 191° |
| 2026-05-08 19:12 | -31.05700 | -70.78462 | 27043 ft | 200 kts | 192° |
| 2026-05-08 19:12 | -31.07084 | -70.78593 | 27046 ft | 199 kts | 192° |
| 2026-05-08 19:13 | -31.08005 | -70.78682 | 27046 ft | 202 kts | 192° |
| 2026-05-08 19:13 | -31.09406 | -70.78825 | 27049 ft | 202 kts | 192° |
| 2026-05-08 19:13 | -31.10813 | -70.78966 | 27051 ft | 205 kts | 192° |
| 2026-05-08 19:13 | -31.12244 | -70.79103 | 27054 ft | 207 kts | 192° |
| 2026-05-08 19:14 | -31.13684 | -70.79241 | 27054 ft | 208 kts | 192° |
| 2026-05-08 19:14 | -31.15114 | -70.79377 | 27085 ft | 203 kts | 191° |
| 2026-05-08 19:14 | -31.16523 | -70.79516 | 27060 ft | 204 kts | 192° |
| 2026-05-08 19:14 | -31.17945 | -70.79660 | 27052 ft | 208 kts | 192° |
| 2026-05-08 19:15 | -31.19393 | -70.79805 | 27038 ft | 209 kts | 193° |
| 2026-05-08 19:15 | -31.20836 | -70.79946 | 27047 ft | 208 kts | 192° |
| 2026-05-08 19:15 | -31.22276 | -70.80085 | 27050 ft | 207 kts | 192° |
| 2026-05-08 19:15 | -31.23707 | -70.80224 | 27049 ft | 206 kts | 192° |
| 2026-05-08 19:16 | -31.25127 | -70.80360 | 27043 ft | 202 kts | 192° |
| 2026-05-08 19:16 | -31.26507 | -70.80495 | 27078 ft | 198 kts | 192° |
| 2026-05-08 19:16 | -31.27890 | -70.80636 | 27068 ft | 201 kts | 192° |
| 2026-05-08 19:16 | -31.29283 | -70.80774 | 27058 ft | 199 kts | 192° |
| 2026-05-08 19:17 | -31.30634 | -70.80900 | 27055 ft | 191 kts | 191° |
| 2026-05-08 19:17 | -31.31957 | -70.81023 | 27063 ft | 192 kts | 193° |
| 2026-05-08 19:17 | -31.33293 | -70.81166 | 27075 ft | 193 kts | 192° |
| 2026-05-08 19:17 | -31.34644 | -70.81301 | 27079 ft | 197 kts | 192° |
| 2026-05-08 19:18 | -31.36016 | -70.81436 | 27076 ft | 198 kts | 192° |
| 2026-05-08 19:18 | -31.37397 | -70.81570 | 27084 ft | 200 kts | 192° |
| 2026-05-08 19:18 | -31.38781 | -70.81706 | 27091 ft | 200 kts | 192° |
| 2026-05-08 19:18 | -31.40177 | -70.81844 | 27085 ft | 202 kts | 192° |
| 2026-05-08 19:19 | -31.41587 | -70.81984 | 27133 ft | 204 kts | 192° |
| 2026-05-08 19:19 | -31.43007 | -70.82124 | 27082 ft | 206 kts | 192° |
| 2026-05-08 19:19 | -31.44427 | -70.82259 | 27085 ft | 203 kts | 191° |
| 2026-05-08 19:19 | -31.45833 | -70.82400 | 27083 ft | 202 kts | 192° |
| 2026-05-08 19:20 | -31.47234 | -70.82536 | 27081 ft | 201 kts | 192° |
| 2026-05-08 19:20 | -31.48156 | -70.82626 | 27068 ft | 201 kts | 192° |
| 2026-05-08 19:20 | -31.50018 | -70.82815 | 27076 ft | 201 kts | 191° |
| 2026-05-08 19:20 | -31.51416 | -70.82953 | 27076 ft | 202 kts | 192° |
| 2026-05-08 19:21 | -31.52818 | -70.83088 | 27082 ft | 202 kts | 192° |
| 2026-05-08 19:21 | -31.54211 | -70.83228 | 27081 ft | 201 kts | 192° |
| 2026-05-08 19:21 | -31.55584 | -70.83365 | 27087 ft | 200 kts | 192° |
| 2026-05-08 19:21 | -31.56992 | -70.83505 | 27090 ft | 200 kts | 192° |
| 2026-05-08 19:22 | -31.58368 | -70.83643 | 27075 ft | 202 kts | 192° |
| 2026-05-08 19:22 | -31.59797 | -70.83781 | 27068 ft | 205 kts | 192° |
| 2026-05-08 19:22 | -31.61184 | -70.83921 | 27071 ft | 202 kts | 192° |
| 2026-05-08 19:22 | -31.62577 | -70.84056 | 27079 ft | 200 kts | 192° |
| 2026-05-08 19:23 | -31.63965 | -70.84193 | 27073 ft | 200 kts | 192° |
| 2026-05-08 19:23 | -31.65359 | -70.84334 | 27078 ft | 203 kts | 192° |
| 2026-05-08 19:23 | -31.66768 | -70.84474 | 27067 ft | 203 kts | 192° |
| 2026-05-08 19:23 | -31.68172 | -70.84613 | 27108 ft | 202 kts | 192° |
| 2026-05-08 19:24 | -31.69577 | -70.84751 | 27078 ft | 203 kts | 192° |
| 2026-05-08 19:24 | -31.70984 | -70.84890 | 27082 ft | 203 kts | 192° |
| 2026-05-08 19:24 | -31.72386 | -70.85029 | 27081 ft | 202 kts | 192° |
| 2026-05-08 19:24 | -31.73780 | -70.85167 | 27074 ft | 200 kts | 192° |
| 2026-05-08 19:25 | -31.75163 | -70.85300 | 27062 ft | 198 kts | 189° |
| 2026-05-08 19:25 | -31.76545 | -70.85256 | 27079 ft | 199 kts | 187° |
| 2026-05-08 19:25 | -31.77931 | -70.85206 | 27081 ft | 201 kts | 188° |
| 2026-05-08 19:25 | -31.79332 | -70.85159 | 27088 ft | 202 kts | 187° |
| 2026-05-08 19:26 | -31.80744 | -70.85110 | 27084 ft | 204 kts | 187° |
| 2026-05-08 19:26 | -31.82162 | -70.85058 | 27083 ft | 204 kts | 187° |
| 2026-05-08 19:26 | -31.83582 | -70.85007 | 27085 ft | 204 kts | 187° |
| 2026-05-08 19:26 | -31.85001 | -70.84956 | 27081 ft | 204 kts | 187° |
| 2026-05-08 19:27 | -31.86407 | -70.84898 | 27077 ft | 200 kts | 188° |
| 2026-05-08 19:27 | -31.87797 | -70.84857 | 27079 ft | 200 kts | 188° |
| 2026-05-08 19:27 | -31.89193 | -70.84808 | 27069 ft | 200 kts | 187° |
| 2026-05-08 19:27 | -31.90584 | -70.84759 | 27073 ft | 199 kts | 187° |
| 2026-05-08 19:28 | -31.91967 | -70.84707 | 27075 ft | 199 kts | 187° |
| 2026-05-08 19:28 | -31.93347 | -70.84659 | 27082 ft | 199 kts | 188° |
| 2026-05-08 19:28 | -31.94731 | -70.84611 | 27092 ft | 200 kts | 187° |
| 2026-05-08 19:28 | -31.96122 | -70.84561 | 27090 ft | 200 kts | 187° |
| 2026-05-08 19:29 | -31.97515 | -70.84511 | 27081 ft | 199 kts | 187° |
| 2026-05-08 19:29 | -31.98922 | -70.84469 | 26796 ft | 208 kts | 187° |
| 2026-05-08 19:29 | -32.00384 | -70.84414 | 26436 ft | 210 kts | 187° |
| 2026-05-08 19:29 | -32.01846 | -70.84356 | 26081 ft | 211 kts | 187° |
| 2026-05-08 19:30 | -32.03313 | -70.84304 | 25722 ft | 212 kts | 187° |
| 2026-05-08 19:30 | -32.04775 | -70.84253 | 25358 ft | 207 kts | 187° |
| 2026-05-08 19:30 | -32.06216 | -70.84200 | 25013 ft | 208 kts | 187° |
| 2026-05-08 19:30 | -32.07659 | -70.84150 | 24668 ft | 208 kts | 187° |
| 2026-05-08 19:31 | -32.09102 | -70.84097 | 24320 ft | 207 kts | 187° |
| 2026-05-08 19:31 | -32.10527 | -70.84046 | 23984 ft | 203 kts | 187° |
| 2026-05-08 19:31 | -32.11929 | -70.83995 | 23647 ft | 201 kts | 187° |
| 2026-05-08 19:31 | -32.13319 | -70.83945 | 23242 ft | 200 kts | 187° |
| 2026-05-08 19:32 | -32.14711 | -70.83899 | 22859 ft | 201 kts | 187° |
| 2026-05-08 19:32 | -32.16115 | -70.83848 | 22488 ft | 204 kts | 187° |
| 2026-05-08 19:32 | -32.17540 | -70.83796 | 22076 ft | 205 kts | 186° |
| 2026-05-08 19:32 | -32.18968 | -70.83745 | 21693 ft | 205 kts | 186° |
| 2026-05-08 19:33 | -32.20390 | -70.83693 | 21347 ft | 204 kts | 186° |
| 2026-05-08 19:33 | -32.21798 | -70.83642 | 20989 ft | 199 kts | 186° |
| 2026-05-08 19:33 | -32.23127 | -70.83591 | 20617 ft | 188 kts | 186° |
| 2026-05-08 19:33 | -32.24421 | -70.83544 | 20219 ft | 178 kts | 186° |
| 2026-05-08 19:34 | -32.25599 | -70.83499 | 19847 ft | 162 kts | 186° |
| 2026-05-08 19:34 | -32.26715 | -70.83465 | 19484 ft | 159 kts | 186° |
| 2026-05-08 19:34 | -32.27798 | -70.83427 | 19124 ft | 157 kts | 186° |
| 2026-05-08 19:34 | -32.28874 | -70.83385 | 18762 ft | 152 kts | 187° |
| 2026-05-08 19:35 | -32.29943 | -70.83352 | 18419 ft | 157 kts | 186° |
| 2026-05-08 19:35 | -32.31060 | -70.83315 | 18035 ft | 164 kts | 185° |
| 2026-05-08 19:35 | -32.32220 | -70.83273 | 17660 ft | 168 kts | 185° |
| 2026-05-08 19:35 | -32.33411 | -70.83233 | 17276 ft | 174 kts | 185° |
| 2026-05-08 19:36 | -32.34636 | -70.83186 | 16896 ft | 178 kts | 184° |
| 2026-05-08 19:36 | -32.35883 | -70.83139 | 16517 ft | 181 kts | 184° |
| 2026-05-08 19:36 | -32.37146 | -70.83094 | 16145 ft | 182 kts | 183° |
| 2026-05-08 19:36 | -32.38414 | -70.83048 | 15772 ft | 182 kts | 182° |
| 2026-05-08 19:37 | -32.39685 | -70.83002 | 15409 ft | 184 kts | 183° |
| 2026-05-08 19:37 | -32.40968 | -70.82954 | 15051 ft | 185 kts | 182° |
| 2026-05-08 19:37 | -32.42261 | -70.82910 | 14685 ft | 185 kts | 182° |
| 2026-05-08 19:37 | -32.43560 | -70.82863 | 14337 ft | 189 kts | 181° |
| 2026-05-08 19:38 | -32.44891 | -70.82814 | 13984 ft | 193 kts | 181° |
| 2026-05-08 19:38 | -32.46298 | -70.82766 | 13606 ft | 209 kts | 181° |
| 2026-05-08 19:38 | -32.47800 | -70.82714 | 13240 ft | 222 kts | 180° |
| 2026-05-08 19:38 | -32.49388 | -70.82655 | 12845 ft | 235 kts | 180° |
| 2026-05-08 19:39 | -32.51028 | -70.82595 | 12493 ft | 238 kts | 179° |
| 2026-05-08 19:39 | -32.52702 | -70.82531 | 12124 ft | 243 kts | 180° |
| 2026-05-08 19:39 | -32.54371 | -70.82471 | 12113 ft | 237 kts | 180° |
| 2026-05-08 19:39 | -32.56000 | -70.82416 | 12103 ft | 233 kts | 180° |
| 2026-05-08 19:40 | -32.57618 | -70.82354 | 12099 ft | 231 kts | 180° |
| 2026-05-08 19:40 | -32.59219 | -70.82294 | 12101 ft | 230 kts | 180° |
| 2026-05-08 19:40 | -32.60816 | -70.82240 | 12093 ft | 229 kts | 180° |
| 2026-05-08 19:40 | -32.62404 | -70.82182 | 12098 ft | 228 kts | 180° |
| 2026-05-08 19:41 | -32.63969 | -70.82126 | 12090 ft | 227 kts | 180° |
| 2026-05-08 19:41 | -32.65550 | -70.82070 | 12091 ft | 228 kts | 180° |
| 2026-05-08 19:41 | -32.67137 | -70.82010 | 12089 ft | 228 kts | 180° |
| 2026-05-08 19:41 | -32.68726 | -70.81948 | 12094 ft | 229 kts | 180° |
| 2026-05-08 19:42 | -32.70315 | -70.81896 | 12092 ft | 228 kts | 180° |
| 2026-05-08 19:42 | -32.71892 | -70.81837 | 11764 ft | 226 kts | 180° |
| 2026-05-08 19:42 | -32.73448 | -70.81782 | 11370 ft | 221 kts | 179° |
| 2026-05-08 19:42 | -32.74980 | -70.81728 | 11006 ft | 221 kts | 180° |
| 2026-05-08 19:43 | -32.76516 | -70.81671 | 10640 ft | 222 kts | 180° |
| 2026-05-08 19:43 | -32.78061 | -70.81615 | 10276 ft | 223 kts | 180° |
| 2026-05-08 19:43 | -32.79619 | -70.81559 | 9913 ft | 226 kts | 180° |
| 2026-05-08 19:43 | -32.81201 | -70.81501 | 9519 ft | 228 kts | 179° |
| 2026-05-08 19:44 | -32.82784 | -70.81443 | 9138 ft | 228 kts | 179° |
| 2026-05-08 19:44 | -32.84366 | -70.81381 | 8754 ft | 227 kts | 180° |
| 2026-05-08 19:44 | -32.85938 | -70.81325 | 8377 ft | 226 kts | 179° |
| 2026-05-08 19:44 | -32.87506 | -70.81273 | 8021 ft | 224 kts | 179° |
| 2026-05-08 19:45 | -32.89014 | -70.81217 | 8002 ft | 210 kts | 180° |
| 2026-05-08 19:45 | -32.90438 | -70.81164 | 7993 ft | 200 kts | 180° |
| 2026-05-08 19:45 | -32.91819 | -70.81119 | 7998 ft | 200 kts | 182° |
| 2026-05-08 19:45 | -32.93231 | -70.81295 | 7865 ft | 212 kts | 189° |
| 2026-05-08 19:46 | -32.94731 | -70.81535 | 7636 ft | 222 kts | 188° |
| 2026-05-08 19:46 | -32.96283 | -70.81770 | 7406 ft | 227 kts | 188° |
| 2026-05-08 19:46 | -32.99439 | -70.82240 | 6944 ft | 230 kts | 187° |
| 2026-05-08 19:47 | -33.01024 | -70.82374 | 6703 ft | 227 kts | 177° |
| 2026-05-08 19:47 | -33.02580 | -70.82276 | 6476 ft | 228 kts | 177° |
| 2026-05-08 19:47 | -33.04164 | -70.82189 | 6221 ft | 228 kts | 178° |
| 2026-05-08 19:47 | -33.05745 | -70.82107 | 5997 ft | 227 kts | 177° |
| 2026-05-08 19:48 | -33.07315 | -70.82016 | 5799 ft | 225 kts | 177° |
| 2026-05-08 19:48 | -33.08869 | -70.81926 | 5600 ft | 223 kts | 177° |
| 2026-05-08 19:48 | -33.10412 | -70.81837 | 5398 ft | 221 kts | 177° |
| 2026-05-08 19:48 | -33.11942 | -70.81750 | 5203 ft | 220 kts | 177° |
| 2026-05-08 19:49 | -33.13470 | -70.81662 | 5033 ft | 218 kts | 177° |
| 2026-05-08 19:49 | -33.14963 | -70.81576 | 5026 ft | 212 kts | 178° |
| 2026-05-08 19:49 | -33.16413 | -70.81492 | 5018 ft | 205 kts | 178° |
| 2026-05-08 19:49 | -33.17780 | -70.81413 | 5011 ft | 190 kts | 177° |
| 2026-05-08 19:50 | -33.19067 | -70.81340 | 5014 ft | 183 kts | 178° |
| 2026-05-08 19:50 | -33.20328 | -70.81270 | 5001 ft | 180 kts | 178° |
| 2026-05-08 19:50 | -33.21602 | -70.81200 | 4769 ft | 183 kts | 178° |
| 2026-05-08 19:50 | -33.22857 | -70.81131 | 4541 ft | 178 kts | 179° |
| 2026-05-08 19:51 | -33.24080 | -70.81060 | 4300 ft | 175 kts | 178° |
| 2026-05-08 19:51 | -33.25292 | -70.80996 | 4060 ft | 174 kts | 178° |
| 2026-05-08 19:51 | -33.26466 | -70.80935 | 3889 ft | 167 kts | 178° |
| 2026-05-08 19:51 | -33.27614 | -70.80875 | 3618 ft | 163 kts | 178° |
| 2026-05-08 19:52 | -33.28729 | -70.80823 | 3384 ft | 158 kts | 179° |
| 2026-05-08 19:52 | -33.29782 | -70.80763 | 3104 ft | 145 kts | 177° |
| 2026-05-08 19:52 | -33.30743 | -70.80711 | 2850 ft | 132 kts | 178° |
| 2026-05-08 19:52 | -33.31621 | -70.80662 | 2678 ft | 120 kts | 177° |
| 2026-05-08 19:53 | -33.32442 | -70.80617 | 2512 ft | 120 kts | 178° |
| 2026-05-08 19:53 | -33.33295 | -70.80571 | 2343 ft | 125 kts | 178° |
| 2026-05-08 19:53 | -33.34163 | -70.80524 | 2171 ft | 124 kts | 177° |
| 2026-05-08 19:53 | -33.34996 | -70.80479 | 2012 ft | 116 kts | 177° |
| 2026-05-08 19:54 | -33.35783 | -70.80431 | 1848 ft | 110 kts | 176° |
| 2026-05-08 19:54 | -33.36552 | -70.80393 | 1730 ft | 113 kts | 178° |
| 2026-05-08 19:54 | -33.37322 | -70.80363 | 1589 ft | 104 kts | 177° |
| 2026-05-08 19:54 | -33.37951 | -70.80332 | 1552 ft | 76 kts | 178° |
| 2026-05-08 19:55 | -33.38403 | -70.80307 | 1553 ft | 57 kts | 178° |
| 2026-05-08 19:55 | -33.38745 | -70.80289 | 1556 ft | 43 kts | 176° |
| 2026-05-08 19:55 | -33.39034 | -70.80273 | 1555 ft | 41 kts | 178° |
| 2026-05-08 19:55 | -33.39265 | -70.80238 | 1554 ft | 24 kts | 159° |
| 2026-05-08 19:56 | -33.39380 | -70.80166 | 1554 ft | 16 kts | 149° |
| 2026-05-08 19:56 | -33.39478 | -70.80094 | 1554 ft | 13 kts | 148° |
| 2026-05-08 19:56 | -33.39538 | -70.80015 | 1555 ft | 9 kts | 87° |
| 2026-05-08 19:56 | -33.39532 | -70.79912 | 1555 ft | 18 kts | 87° |
| 2026-05-08 19:57 | -33.39528 | -70.79785 | 1555 ft | 17 kts | 89° |
| 2026-05-08 19:57 | -33.39522 | -70.79616 | 1555 ft | 18 kts | 86° |
| 2026-05-08 19:57 | -33.39516 | -70.79498 | 1555 ft | 9 kts | 89° |
| 2026-05-08 19:57 | -33.39515 | -70.79443 | 1555 ft | 9 kts | 88° |
| 2026-05-08 19:58 | -33.39512 | -70.79336 | 1555 ft | 11 kts | 87° |
| 2026-05-08 19:58 | -33.39508 | -70.79246 | 1555 ft | 5 kts | 88° |
| 2026-05-08 19:58 | -33.39507 | -70.79203 | 1554 ft | 10 kts | 86° |
| 2026-05-08 19:58 | -33.39471 | -70.79134 | 1554 ft | 15 kts | 0° |
| 2026-05-08 19:59 | -33.39387 | -70.79139 | 1554 ft | 22 kts | 358° |
| 2026-05-08 19:59 | -33.39284 | -70.79142 | 1554 ft | 9 kts | 360° |
| 2026-05-08 19:59 | -33.39203 | -70.79144 | 1554 ft | 14 kts | 358° |
| 2026-05-08 19:59 | -33.39087 | -70.79150 | 1553 ft | 11 kts | 357° |
| 2026-05-08 20:00 | -33.39074 | -70.79216 | 1553 ft | 14 kts | 269° |
| 2026-05-08 20:00 | -33.39075 | -70.79247 | 1553 ft | 3 kts | 270° |
| 2026-05-08 20:00 | -33.39074 | -70.79273 | 1553 ft | 0 kts | 271° |